createdAt,value
2018-05-04T00:01:23.673Z,21.10
2018-05-04T00:03:57.551Z,21.00
2018-05-04T00:06:31.439Z,21.00
2018-05-04T00:09:05.285Z,21.00
2018-05-04T00:11:39.152Z,21.00
2018-05-04T00:14:12.988Z,21.00
2018-05-04T00:16:46.864Z,21.00
2018-05-04T00:19:20.729Z,21.00
2018-05-04T00:21:55.463Z,20.90
2018-05-04T00:24:29.386Z,20.90
2018-05-04T00:27:04.771Z,20.90
2018-05-04T00:29:39.456Z,20.90
2018-05-04T00:32:13.520Z,20.90
2018-05-04T00:34:47.359Z,20.90
2018-05-04T00:37:22.000Z,20.80
2018-05-04T00:39:56.134Z,20.80
2018-05-04T00:42:30.111Z,20.80
2018-05-04T00:45:04.084Z,20.80
2018-05-04T00:47:38.046Z,20.80
2018-05-04T00:50:11.867Z,20.70
2018-05-04T00:52:45.813Z,20.70
2018-05-04T00:55:19.752Z,20.70
2018-05-04T00:57:54.195Z,20.70
2018-05-04T01:00:28.125Z,20.70
2018-05-04T01:03:03.033Z,20.70
2018-05-04T01:05:37.732Z,20.60
2018-05-04T01:08:11.621Z,20.60
2018-05-04T01:10:45.399Z,20.60
2018-05-04T01:13:19.377Z,20.60
2018-05-04T01:15:53.376Z,20.60
2018-05-04T01:18:27.209Z,20.60
2018-05-04T01:21:01.098Z,20.60
2018-05-04T01:23:35.761Z,20.60
2018-05-04T01:26:09.848Z,20.60
2018-05-04T01:28:43.691Z,20.50
2018-05-04T01:31:18.399Z,20.50
2018-05-04T01:33:52.389Z,20.50
2018-05-04T01:36:26.236Z,20.50
2018-05-04T01:39:00.996Z,20.50
2018-05-04T01:41:35.069Z,20.50
2018-05-04T01:44:08.960Z,20.50
2018-05-04T01:46:42.843Z,20.50
2018-05-04T01:49:16.612Z,20.40
2018-05-04T01:51:51.507Z,20.40
2018-05-04T01:54:25.620Z,20.40
2018-05-04T01:57:00.342Z,20.40
2018-05-04T01:59:34.324Z,20.40
2018-05-04T02:02:08.140Z,20.40
2018-05-04T02:04:42.120Z,20.40
2018-05-04T02:07:16.784Z,20.40
2018-05-04T02:09:50.727Z,20.40
2018-05-04T02:12:24.455Z,20.40
2018-05-04T02:14:58.220Z,20.40
2018-05-04T02:17:32.248Z,20.40
2018-05-04T02:20:06.246Z,20.30
2018-05-04T02:22:40.885Z,20.30
2018-05-04T02:25:15.010Z,20.30
2018-05-04T02:27:48.996Z,20.30
2018-05-04T02:30:22.816Z,20.30
2018-05-04T02:32:56.713Z,20.30
2018-05-04T02:35:31.339Z,20.30
2018-05-04T02:38:05.402Z,20.30
2018-05-04T02:40:39.310Z,20.30
2018-05-04T02:43:13.375Z,20.30
2018-05-04T02:45:47.413Z,20.20
2018-05-04T02:48:22.216Z,20.20
2018-05-04T02:50:56.904Z,20.20
2018-05-04T02:53:31.758Z,20.20
2018-05-04T02:56:05.528Z,20.20
2018-05-04T02:58:39.549Z,20.20
2018-05-04T03:01:14.316Z,20.20
2018-05-04T03:03:48.311Z,20.20
2018-05-04T03:06:22.116Z,20.20
2018-05-04T03:08:56.732Z,20.20
2018-05-04T03:11:30.726Z,20.20
2018-05-04T03:14:04.444Z,20.20
2018-05-04T03:16:38.372Z,20.10
2018-05-04T03:19:12.722Z,20.10
2018-05-04T03:21:46.595Z,20.10
2018-05-04T03:24:20.288Z,20.10
2018-05-04T03:26:54.109Z,20.10
2018-05-04T03:29:28.785Z,20.10
2018-05-04T03:32:02.824Z,20.10
2018-05-04T03:34:36.857Z,20.10
2018-05-04T03:37:10.892Z,20.10
2018-05-04T03:39:44.940Z,20.10
2018-05-04T03:42:18.816Z,20.10
2018-05-04T03:44:53.458Z,20.10
2018-05-04T03:47:27.451Z,20.10
2018-05-04T03:50:02.053Z,20.10
2018-05-04T03:52:36.171Z,20.00
2018-05-04T03:55:10.925Z,20.00
2018-05-04T03:57:56.834Z,20.00
2018-05-04T04:00:42.774Z,20.00
2018-05-04T04:03:29.566Z,20.00
2018-05-04T04:06:03.410Z,20.00
2018-05-04T04:08:38.223Z,20.00
2018-05-04T04:11:11.988Z,20.00
2018-05-04T04:13:45.962Z,20.00
2018-05-04T04:16:19.871Z,20.00
2018-05-04T04:18:54.500Z,19.90
2018-05-04T04:21:28.560Z,19.90
2018-05-04T04:24:02.519Z,19.90
2018-05-04T04:26:36.530Z,19.90
2018-05-04T04:29:10.491Z,19.90
2018-05-04T04:31:45.279Z,19.90
2018-05-04T04:34:19.230Z,19.90
2018-05-04T04:36:53.323Z,19.90
2018-05-04T04:39:27.150Z,20.00
2018-05-04T04:42:01.608Z,19.90
2018-05-04T04:44:35.837Z,19.90
2018-05-04T04:47:09.654Z,19.90
2018-05-04T04:49:44.305Z,19.90
2018-05-04T04:52:18.998Z,19.90
2018-05-04T04:54:53.178Z,19.90
2018-05-04T04:57:27.695Z,19.90
2018-05-04T05:00:02.179Z,19.90
2018-05-04T05:02:37.049Z,19.90
2018-05-04T05:05:11.543Z,19.90
2018-05-04T05:07:45.373Z,19.90
2018-05-04T05:10:19.771Z,20.00
2018-05-04T05:12:54.699Z,20.00
2018-05-04T05:15:28.914Z,20.00
2018-05-04T05:18:02.615Z,20.00
2018-05-04T05:20:36.423Z,20.00
2018-05-04T05:23:10.362Z,20.00
2018-05-04T05:25:45.116Z,20.00
2018-05-04T05:28:19.090Z,20.00
2018-05-04T05:30:52.963Z,20.00
2018-05-04T05:33:26.937Z,20.00
2018-05-04T05:36:01.079Z,20.00
2018-05-04T05:38:35.009Z,20.00
2018-05-04T05:41:09.788Z,20.00
2018-05-04T05:43:43.804Z,20.00
2018-05-04T05:46:17.909Z,20.00
2018-05-04T05:48:52.549Z,20.00
2018-05-04T05:51:26.844Z,19.90
2018-05-04T05:54:00.798Z,20.00
2018-05-04T05:56:35.872Z,20.00
2018-05-04T05:59:09.876Z,20.00
2018-05-04T06:01:43.954Z,20.00
2018-05-04T06:04:17.993Z,20.00
2018-05-04T06:06:52.000Z,20.00
2018-05-04T06:09:25.805Z,20.00
2018-05-04T06:12:00.481Z,20.00
2018-05-04T06:14:34.482Z,20.00
2018-05-04T06:17:08.497Z,20.10
2018-05-04T06:19:42.531Z,20.10
2018-05-04T06:22:17.413Z,20.10
2018-05-04T06:24:52.143Z,20.20
2018-05-04T06:27:26.087Z,20.10
2018-05-04T06:30:00.023Z,20.20
2018-05-04T06:32:33.932Z,20.30
2018-05-04T06:35:08.019Z,20.30
2018-05-04T06:37:41.942Z,20.30
2018-05-04T06:40:15.842Z,20.40
2018-05-04T06:42:49.809Z,20.40
2018-05-04T06:45:18.153Z,20.50
2018-05-04T06:47:46.423Z,20.50
2018-05-04T06:50:15.609Z,20.50
2018-05-04T06:52:43.800Z,20.50
2018-05-04T06:55:12.004Z,20.60
2018-05-04T06:57:40.279Z,20.60
2018-05-04T07:00:09.279Z,20.60
2018-05-04T07:02:37.621Z,20.60
2018-05-04T07:05:06.675Z,20.70
2018-05-04T07:07:35.717Z,20.70
2018-05-04T07:10:04.040Z,20.70
2018-05-04T07:12:32.231Z,20.80
2018-05-04T07:15:00.456Z,20.80
2018-05-04T07:17:28.855Z,20.80
2018-05-04T07:19:57.168Z,20.90
2018-05-04T07:22:25.385Z,20.90
2018-05-04T07:24:53.625Z,21.00
2018-05-04T07:27:22.778Z,21.00
2018-05-04T07:29:51.023Z,21.00
2018-05-04T07:32:19.329Z,21.10
2018-05-04T07:34:47.519Z,21.10
2018-05-04T07:37:15.786Z,21.10
2018-05-04T07:39:44.154Z,21.20
2018-05-04T07:42:12.324Z,21.20
2018-05-04T07:44:40.612Z,21.30
2018-05-04T07:47:08.831Z,21.30
2018-05-04T07:49:37.063Z,21.40
2018-05-04T07:52:05.325Z,21.50
2018-05-04T07:54:33.584Z,21.50
2018-05-04T07:57:01.761Z,21.60
2018-05-04T07:59:29.965Z,21.60
2018-05-04T08:01:58.209Z,21.70
2018-05-04T08:04:26.450Z,21.70
2018-05-04T08:06:54.766Z,21.80
2018-05-04T08:09:22.968Z,21.80
2018-05-04T08:11:51.715Z,21.80
2018-05-04T08:14:20.039Z,21.90
2018-05-04T08:16:48.981Z,22.00
2018-05-04T08:19:17.242Z,21.90
2018-05-04T08:21:45.517Z,22.00
2018-05-04T08:24:13.765Z,22.00
2018-05-04T08:26:42.045Z,22.10
2018-05-04T08:29:10.267Z,22.10
2018-05-04T08:31:38.550Z,22.10
2018-05-04T08:34:06.969Z,22.20
2018-05-04T08:36:35.996Z,22.30
2018-05-04T08:39:04.269Z,22.20
2018-05-04T08:41:32.475Z,22.30
2018-05-04T08:44:00.680Z,22.30
2018-05-04T08:46:29.115Z,21.60
2018-05-04T08:48:57.644Z,21.30
2018-05-04T08:51:26.796Z,21.50
2018-05-04T08:53:55.178Z,21.50
2018-05-04T08:56:23.474Z,21.00
2018-05-04T08:58:51.734Z,21.10
2018-05-04T09:01:20.023Z,21.10
2018-05-04T09:03:48.310Z,21.40
2018-05-04T09:06:17.429Z,21.80
2018-05-04T09:11:19.622Z,21.60
2018-05-04T09:13:48.250Z,20.90
2018-05-04T09:16:16.497Z,20.60
2018-05-04T09:18:44.891Z,20.60
2018-05-04T09:21:13.286Z,20.60
2018-05-04T09:23:41.724Z,21.00
2018-05-04T09:26:09.936Z,21.20
2018-05-04T09:28:38.967Z,21.80
2018-05-04T09:31:07.288Z,21.80
2018-05-04T09:33:35.461Z,22.10
2018-05-04T09:36:03.820Z,22.20
2018-05-04T09:38:32.040Z,22.20
2018-05-04T09:41:01.846Z,22.40
2018-05-04T09:43:31.004Z,22.50
2018-05-04T09:45:59.208Z,22.50
2018-05-04T09:48:28.479Z,22.60
2018-05-04T09:50:56.739Z,22.60
2018-05-04T09:53:25.117Z,22.60
2018-05-04T09:55:53.430Z,22.70
2018-05-04T09:58:22.323Z,22.80
2018-05-04T10:00:51.324Z,22.80
2018-05-04T10:03:20.416Z,22.90
2018-05-04T10:05:49.965Z,22.90
2018-05-04T10:08:34.140Z,22.90
2018-05-04T10:11:02.354Z,23.00
2018-05-04T10:13:31.393Z,23.10
2018-05-04T10:15:59.702Z,23.00
2018-05-04T10:18:28.633Z,23.20
2018-05-04T10:20:56.917Z,23.10
2018-05-04T10:23:25.103Z,23.20
2018-05-04T10:25:53.358Z,23.20
2018-05-04T10:28:21.680Z,23.30
2018-05-04T10:30:49.971Z,23.30
2018-05-04T10:33:18.276Z,23.30
2018-05-04T10:35:47.296Z,23.40
2018-05-04T10:38:15.688Z,23.40
2018-05-04T10:40:43.888Z,23.50
2018-05-04T10:43:12.875Z,23.50
2018-05-04T10:45:41.132Z,23.50
2018-05-04T10:48:09.308Z,23.50
2018-05-04T10:50:37.621Z,23.60
2018-05-04T10:53:05.848Z,23.60
2018-05-04T10:55:34.046Z,23.60
2018-05-04T10:58:02.248Z,23.70
2018-05-04T11:00:31.571Z,23.60
2018-05-04T11:03:00.645Z,23.70
2018-05-04T11:05:28.924Z,23.70
2018-05-04T11:07:57.094Z,23.70
2018-05-04T11:10:25.265Z,23.70
2018-05-04T11:12:53.498Z,23.70
2018-05-04T11:15:21.716Z,23.70
2018-05-04T11:17:49.902Z,23.70
2018-05-04T11:20:18.440Z,23.70
2018-05-04T11:22:48.036Z,23.80
2018-05-04T11:25:17.105Z,23.80
2018-05-04T11:27:45.316Z,23.70
2018-05-04T11:30:14.298Z,23.80
2018-05-04T11:32:43.277Z,23.80
2018-05-04T11:35:11.436Z,23.80
2018-05-04T11:37:39.669Z,23.80
2018-05-04T11:40:07.867Z,23.80
2018-05-04T11:42:36.094Z,23.90
2018-05-04T11:45:04.368Z,23.90
2018-05-04T11:47:33.320Z,23.90
2018-05-04T11:50:01.514Z,23.90
2018-05-04T11:52:29.791Z,24.00
2018-05-04T11:54:58.009Z,24.00
2018-05-04T11:57:26.232Z,24.10
2018-05-04T11:59:55.399Z,24.00
2018-05-04T12:02:23.638Z,23.90
2018-05-04T12:04:52.716Z,23.60
2018-05-04T12:07:21.101Z,23.60
2018-05-04T12:09:50.121Z,23.50
2018-05-04T12:12:18.559Z,23.50
2018-05-04T12:14:47.583Z,23.40
2018-05-04T12:17:15.869Z,23.40
2018-05-04T12:19:44.088Z,23.40
2018-05-04T12:22:12.311Z,23.40
2018-05-04T12:24:40.619Z,23.40
2018-05-04T12:27:08.905Z,23.30
2018-05-04T12:29:37.251Z,23.30
2018-05-04T12:32:05.623Z,23.20
2018-05-04T12:34:33.871Z,23.20
2018-05-04T12:37:02.083Z,23.20
2018-05-04T12:39:30.700Z,23.20
2018-05-04T12:41:59.703Z,23.30
2018-05-04T12:44:28.968Z,23.30
2018-05-04T12:46:57.204Z,23.30
2018-05-04T12:49:26.158Z,23.30
2018-05-04T12:51:55.218Z,23.20
2018-05-04T12:54:23.450Z,23.20
2018-05-04T12:56:52.417Z,23.20
2018-05-04T12:59:21.383Z,23.20
2018-05-04T13:01:49.718Z,23.20
2018-05-04T13:04:18.053Z,23.20
2018-05-04T13:06:46.303Z,23.20
2018-05-04T13:09:14.766Z,23.20
2018-05-04T13:11:43.024Z,23.20
2018-05-04T13:14:11.245Z,23.30
2018-05-04T13:16:39.466Z,23.30
2018-05-04T13:19:07.677Z,23.30
2018-05-04T13:21:35.942Z,23.30
2018-05-04T13:24:04.185Z,23.30
2018-05-04T13:26:33.148Z,23.10
2018-05-04T13:29:02.176Z,23.10
2018-05-04T13:31:30.439Z,23.10
2018-05-04T13:33:58.672Z,23.20
